x

South Bermuda - 300 Nm Sse Of Bermuda (41049) Wave Buoy

11:50pm - Sun 26th Feb 2017 All times are UTC.

  • Sig Wave height 3.9ft
  • Swell Direction
  • Peak Period 8s
  • Average Period 6s
  • Wind
    4mph
  • Sea Temp 74°f
  • Air Temp 73°f
  • Sea Pressure 1023mb

More Historic Weather Station data

Upgrade to MSW Pro to gain access to the past 30 days of data for over 8000 Wavebouys and Weather Stations around the globe.

Join Pro

Comparision Forecast

View Surf forecast
   
Sun 02/26 11:50pm 4ft 8s 6s 4
mph
1023mb 74f 73f
10:50pm 4.5ft 8s 6s  -  2 mph 1022.4mb 74f 73f
9:50pm 4.5ft 8s 6s  -  2 mph 1022.1mb 75f 75f
8:50pm 4ft 8s 6s 2 4 mph 1021.6mb 75f 74f
7:50pm 4.5ft 8s 6s 4
mph
1021.1mb 75f 75f
6:50pm 4.5ft 7s 6s 2 4 mph 1020.9mb 75f 74f
5:50pm 4.5ft 8s 6s 4
mph
1021mb 75f 74f
4:50pm 4.5ft 8s 6s 4 7 mph 1021.3mb 74f 73f
3:50pm 4.5ft 8s 6s 9
mph
1021.6mb 73f 73f
2:50pm 4.5ft 8s 6s 7
mph
1022.2mb 73f 73f
1:50pm 4.5ft 7s 6s 7
mph
1022.1mb 73f 73f
12:50pm 5ft 8s 6s 7 9 mph 1021.4mb 72f 73f
11:50am 4.5ft 8s 6s 7 9 mph 1020.6mb 72f 73f
10:50am 5ft 8s 6s 9 11 mph 1019.8mb 72f 72f
9:50am 5ft 8s 6s 9 11 mph 1019.1mb 72f 72f
8:50am 5ft 8s 6s 7 9 mph 1018.8mb 72f 72f
7:50am 5ft 9s 6s 4 7 mph 1018.7mb 72f 72f
6:50am 5.5ft 8s 6s 4 7 mph 1018.8mb 72f 72f
5:50am 5.5ft 8s 6s 4 7 mph 1019.1mb 73f 73f
4:50am 5.5ft 8s 6s 9
mph
1019.3mb 73f 73f
3:50am 5.5ft 8s 6s 11 13 mph 1019.1mb 73f 73f
2:50am 6ft 8s 6s 9 11 mph 1019.6mb 73f 73f
1:50am 6ft 8s 6s 7 9 mph 1019.6mb 73f 73f
12:50am 6ft 8s 6s 7 9 mph 1019.2mb 73f 73f
Sat 02/25 11:50pm 6ft 7s 6s 7 9 mph 1018.6mb 73f 73f
10:50pm 6ft 8s 6s 7 9 mph 1018.1mb 73f 73f
9:50pm 7ft 7s 6s 9 11 mph 1017.6mb 73f 73f
8:50pm 6.5ft 7s 6s 11 13 mph 1017.2mb 73f 73f
7:50pm 7ft 8s 6s 13 16 mph 1016.9mb 73f 73f
6:50pm 6.5ft 11s 6s 16 18 mph 1016.8mb 73f 73f
5:50pm 6.5ft 11s 6s 16 18 mph 1017mb 73f 73f
4:50pm 6.5ft 6s 6s 13 18 mph 1017.3mb 72f 73f
3:50pm 7ft 11s 6s 16 20 mph 1017.9mb 72f 73f
2:50pm 7ft 8s 6s 18 20 mph 1018.1mb 72f 73f
1:50pm 7ft 11s 6s 18 22 mph 1018mb 72f 73f
12:50pm 7ft 11s 6s 18 20 mph 1017.4mb 72f 72f
11:50am 7ft 7s 6s 20 25 mph 1016.5mb 72f 72f
10:50am 7ft 11s 6s 20 25 mph 1015.8mb 72f 72f
9:50am 7ft 7s 6s 18 22 mph 1015.6mb 72f 72f
8:50am 7.5ft 11s 6s 16 18 mph 1016mb 72f 72f
7:50am 7.5ft 7s 6s 16 20 mph 1016.5mb 72f 72f
6:50am 8ft 6s 6s 16 20 mph 1016.6mb 72f 72f
5:50am 7.5ft 11s 6s 16 20 mph 1017.3mb 72f 72f
4:50am 7.5ft 12s 6s 18 20 mph 1017.9mb 71f 72f
3:50am 8ft 7s 6s 20 25 mph 1017.6mb 71f 72f
2:50am 7.5ft 6s 6s 20 25 mph 1017.5mb 72f 72f
1:50am 9ft 6s 6s 20 25 mph 1018mb 72f 73f
12:50am 8ft 12s 6s 22 27 mph 1017.2mb 72f 72f
Fri 02/24 11:50pm 8.5ft 11s 6s 20 27 mph 1016.9mb 72f 72f
10:50pm 8.5ft 12s 6s 22 27 mph 1016.4mb 72f 72f
9:50pm 7.5ft 11s 6s 25 29 mph 1016mb 72f 72f
8:50pm 8ft 12s 6s 25 29 mph 1015.8mb 72f 73f
7:50pm 8ft 12s 6s 22 25 mph 1016mb 72f 72f
6:50pm 8ft 11s 6s 22 29 mph 1016.7mb 72f 72f
5:50pm 7.5ft 11s 6s 20 25 mph 1017.4mb 72f 72f
4:50pm 8ft 12s 7s 22 27 mph 1018.3mb 72f 72f
3:50pm 7.5ft 12s 6s 20 25 mph 1019.2mb 72f 72f
2:50pm 8.5ft 12s 7s 22 25 mph 1019.9mb 72f 72f
1:50pm 7.5ft 12s 7s 22 27 mph 1019.8mb 72f 72f
12:50pm 8ft 12s 7s 18 22 mph 1019.8mb 72f 71f
11:50am 9ft 12s 7s 20 22 mph 1019.2mb 72f 71f
10:50am 8ft 12s 7s 20 25 mph 1018.2mb 72f 71f
9:50am 7ft 11s 7s 20 25 mph 1017.7mb 72f 70f
8:50am 8ft 12s 8s 16 18 mph 1018.1mb 72f 70f
7:50am 9ft 13s 8s 18 20 mph 1018.5mb 72f 69f
6:50am 9ft 13s 8s 16 18 mph 1018.9mb 72f 69f
5:50am 8.5ft 13s 8s 18 25 mph 1019.1mb 72f 70f
4:50am 9ft 12s 8s 16 22 mph 1019.1mb 72f 70f
3:50am 11ft 13s 9s 18 22 mph 1019mb 72f 70f
2:50am 9.5ft 12s 8s 16 22 mph 1019.8mb 72f 69f
1:50am 9ft 13s 9s 16 20 mph 1019.4mb 72f 69f
12:50am 9ft 13s 8s 13 18 mph 1019.4mb 72f 69f
Thu 02/23 11:50pm 11ft 13s 9s 16 20 mph 1019mb 72f 69f
10:50pm 9ft 13s 9s 13 20 mph 1018.3mb 72f 69f
9:50pm 10.5ft 13s 9s 16 18 mph 1018mb 72f 69f
8:50pm 10ft 13s 9s 16 18 mph 1017.3mb 72f 69f
7:50pm 11ft 13s 9s 13 16 mph 1017.4mb 72f 69f
6:50pm 10ft 14s 9s 11 16 mph 1017.4mb 72f 69f
5:50pm 10.5ft 13s 9s 16 18 mph 1018mb 72f 69f
4:50pm 11.5ft 12s 9s 16 20 mph 1018.1mb 72f 69f
3:50pm 10.5ft 11s 9s 13 20 mph 1018.5mb 72f 69f
2:50pm 11ft 12s 9s 13 16 mph 1019mb 72f 69f
1:50pm 11.5ft 13s 9s 9 11 mph 1019.3mb 72f 69f
12:50pm 12ft 12s 9s 11 16 mph 1018.8mb 72f 69f
11:50am 12ft 12s 9s 11 13 mph 1018.3mb 72f 68f
10:50am 12.5ft 13s 9s 9 16 mph 1017.7mb 72f 68f
9:50am 14ft 12s 10s 9 13 mph 1017mb 72f 67f
8:50am 13ft 13s 9s 13 16 mph 1016.3mb 72f 67f
7:50am 12ft 11s 9s 13 18 mph 1016mb 72f 67f
6:50am 13ft 11s 9s 11 16 mph 1016mb 72f 68f
5:50am 12.5ft 11s 9s 11 16 mph 1016.1mb 72f 68f
4:50am 11.5ft 11s 9s 11 13 mph 1016.2mb 72f 68f
3:50am 12ft 12s 9s 9 13 mph 1016.5mb 72f 68f
2:50am 11ft 12s 9s 13 18 mph 1016.5mb 72f 68f
1:50am 12ft 12s 9s 11 13 mph 1016.5mb 72f 68f